Time;durP1;ratioP1;P1;durP2;ratioP2;P2;SDS_P1;SDS_P2;PMS_P1;PMS_P2;Temp;Humidity;BMP_temperature;BMP_pressure;BME280_temperature;BME280_humidity;BME280_pressure;Samples;Min_cycle;Max_cycle;Signal;HPM_P1;HPM_P2
2021/04/02 04:13:16;;;;;;;4.18;0.82;;;2.30;99.90;;;;;;5085031;28;20134;-69
2021/04/02 04:15:43;;;;;;;2.33;0.70;;;2.20;99.90;;;;;;5091122;28;20042;-70
2021/04/02 04:18:11;;;;;;;0.55;0.52;;;2.20;99.90;;;;;;5091319;28;20484;-68
2021/04/02 04:20:38;;;;;;;3.17;0.85;;;2.30;99.90;;;;;;5091072;28;20036;-71
2021/04/02 04:23:06;;;;;;;3.83;0.93;;;2.20;99.90;;;;;;5092199;28;20057;-69
2021/04/02 04:25:33;;;;;;;1.75;0.60;;;2.30;99.90;;;;;;5095066;28;20090;-69
2021/04/02 04:28:00;;;;;;;1.50;0.50;;;2.30;99.90;;;;;;5095260;28;20077;-71
2021/04/02 04:30:27;;;;;;;1.75;0.60;;;2.30;99.90;;;;;;5095494;28;20024;-73
2021/04/02 04:32:55;;;;;;;2.65;0.90;;;2.30;99.90;;;;;;5095736;28;20050;-70
2021/04/02 04:35:22;;;;;;;2.35;0.73;;;2.30;99.90;;;;;;5095464;28;20035;-73
2021/04/02 04:37:49;;;;;;;3.55;0.85;;;2.40;99.90;;;;;;5094666;28;20071;-73
2021/04/02 04:40:18;;;;;;;3.10;0.60;;;2.60;99.90;;;;;;5095449;28;20048;-75
2021/04/02 04:42:46;;;;;;;2.22;0.60;;;2.70;99.90;;;;;;5095049;28;20024;-72
2021/04/02 04:45:16;;;;;;;8.50;0.80;;;2.70;99.90;;;;;;5095026;28;20384;-73
2021/04/02 04:47:42;;;;;;;3.30;0.87;;;2.70;99.90;;;;;;5094720;28;20028;-74
2021/04/02 04:50:08;;;;;;;2.47;0.60;;;2.70;99.90;;;;;;5095013;28;20314;-78
2021/04/02 04:52:43;;;;;;;9.05;0.70;;;2.70;99.90;;;;;;5094480;28;20028;-74
2021/04/02 04:55:11;;;;;;;3.63;0.68;;;3.00;99.90;;;;;;5094399;28;20048;-76
2021/04/02 04:57:39;;;;;;;3.40;0.93;;;3.20;99.90;;;;;;5094661;28;20119;-74
2021/04/02 05:00:07;;;;;;;1.80;0.80;;;3.40;99.90;;;;;;5094611;28;20415;-74
2021/04/02 05:02:34;;;;;;;4.15;1.15;;;3.50;99.30;;;;;;5094714;28;20020;-76
2021/04/02 05:05:01;;;;;;;3.55;0.60;;;3.50;99.00;;;;;;5094369;28;20038;-83
2021/04/02 05:07:29;;;;;;;1.85;0.70;;;3.40;98.90;;;;;;5094611;28;20028;-79
2021/04/02 05:09:58;;;;;;;5.10;0.80;;;3.40;98.90;;;;;;5094221;28;20107;-78
2021/04/02 05:12:25;;;;;;;4.95;0.90;;;3.40;99.00;;;;;;5094069;28;20052;-78
2021/04/02 05:14:52;;;;;;;3.28;0.77;;;3.40;99.00;;;;;;5094006;28;20035;-79
2021/04/02 05:17:19;;;;;;;3.95;0.90;;;3.40;98.90;;;;;;5093894;28;20024;-78
2021/04/02 05:19:45;;;;;;;2.97;0.60;;;3.30;98.50;;;;;;5093863;28;20028;-79
2021/04/02 05:22:11;;;;;;;2.35;0.60;;;3.30;98.50;;;;;;5093983;28;20074;-80
2021/04/02 05:24:37;;;;;;;3.95;0.50;;;3.40;98.50;;;;;;5093949;28;20027;-80
2021/04/02 05:27:07;;;;;;;3.35;1.13;;;3.40;98.50;;;;;;5094038;28;20089;-81
2021/04/02 05:29:32;;;;;;;11.77;1.45;;;3.40;98.20;;;;;;5094039;28;20035;-81
2021/04/02 05:31:59;;;;;;;0.80;0.52;;;3.40;98.30;;;;;;5093763;28;20379;-78
2021/04/02 05:34:25;;;;;;;4.18;0.70;;;3.40;97.90;;;;;;5093711;28;20574;-76
2021/04/02 05:36:51;;;;;;;3.60;0.70;;;3.40;97.80;;;;;;5093726;28;20067;-76
2021/04/02 05:39:16;;;;;;;8.65;0.88;;;3.40;97.60;;;;;;5093830;28;20544;-77
2021/04/02 05:41:53;;;;;;;3.95;0.65;;;3.50;97.50;;;;;;5093555;28;20034;-76
2021/04/02 05:44:26;;;;;;;2.58;0.73;;;3.50;97.40;;;;;;5093691;28;20077;-75
2021/04/02 05:46:53;;;;;;;5.15;0.90;;;3.50;97.10;;;;;;5093268;28;20020;-76
2021/04/02 05:49:21;;;;;;;3.42;0.60;;;3.50;97.10;;;;;;5093678;28;20030;-76
2021/04/02 05:51:49;;;;;;;4.63;0.73;;;3.60;96.70;;;;;;5093079;28;20103;-77
2021/04/02 05:54:23;;;;;;;3.40;0.98;;;3.60;96.90;;;;;;5093547;28;20467;-75
2021/04/02 05:56:51;;;;;;;2.78;0.80;;;3.70;96.50;;;;;;5093370;28;20096;-74
2021/04/02 05:59:18;;;;;;;2.10;0.70;;;3.80;96.10;;;;;;5093679;28;20043;-78
2021/04/02 06:01:44;;;;;;;1.55;0.63;;;3.80;95.50;;;;;;5093086;28;20036;-72
2021/04/02 06:04:10;;;;;;;1.92;0.70;;;3.90;95.20;;;;;;5083326;28;20105;-74
2021/04/02 06:06:36;;;;;;;2.47;0.80;;;4.10;95.50;;;;;;5088621;28;20024;-78
2021/04/02 06:09:02;;;;;;;9.93;0.98;;;4.20;94.60;;;;;;5093295;28;20031;-77
2021/04/02 06:11:27;;;;;;;3.33;0.93;;;4.30;93.30;;;;;;5092912;28;20020;-75
2021/04/02 06:13:53;;;;;;;4.47;0.73;;;4.40;92.40;;;;;;5093033;28;20035;-68
2021/04/02 06:16:19;;;;;;;5.97;0.90;;;5.40;99.90;;;;;;5093072;28;20024;-76
2021/04/02 06:18:45;;;;;;;3.17;0.70;;;7.20;93.40;;;;;;5092829;28;20203;-76
2021/04/02 06:21:11;;;;;;;3.42;0.60;;;6.90;81.30;;;;;;5093082;28;20472;-76
2021/04/02 06:23:37;;;;;;;4.28;0.90;;;6.50;79.80;;;;;;5092548;28;20035;-76
2021/04/02 06:26:06;;;;;;;5.57;1.55;;;6.30;80.20;;;;;;5092719;28;20579;-76
2021/04/02 06:28:35;;;;;;;3.17;0.90;;;6.30;80.70;;;;;;5092793;28;20052;-76
2021/04/02 06:31:15;;;;;;;2.25;0.80;;;6.30;79.30;;;;;;5092782;28;20020;-76
2021/04/02 06:34:07;;;;;;;3.53;1.25;;;6.30;79.50;;;;;;5092761;28;20550;-76
2021/04/02 06:36:33;;;;;;;1.73;0.55;;;6.40;77.50;;;;;;5078228;28;20036;-76
2021/04/02 06:39:02;;;;;;;4.13;0.73;;;6.30;76.10;;;;;;5088674;28;20032;-72
2021/04/02 06:41:30;;;;;;;1.65;0.50;;;6.20;78.10;;;;;;5092396;28;20024;-75
2021/04/02 06:44:01;;;;;;;2.58;0.80;;;7.60;84.40;;;;;;5092231;28;20034;-75
2021/04/02 06:46:35;;;;;;;1.85;0.82;;;7.40;73.30;;;;;;5077691;28;20043;-74
2021/04/02 06:49:15;;;;;;;1.23;0.60;;;6.90;72.50;;;;;;5092553;28;20031;-73
2021/04/02 06:51:43;;;;;;;2.08;0.80;;;6.60;73.10;;;;;;5092095;28;20035;-74
2021/04/02 06:54:13;;;;;;;2.38;0.70;;;6.40;73.50;;;;;;5092383;28;20458;-74
2021/04/02 06:56:55;;;;;;;1.73;0.68;;;6.30;73.20;;;;;;5091812;28;20017;-75
2021/04/02 06:59:23;;;;;;;1.10;0.60;;;6.20;73.50;;;;;;5092002;28;20040;-74
2021/04/02 07:01:49;;;;;;;2.67;0.80;;;6.20;73.70;;;;;;5091706;28;20035;-74
2021/04/02 07:04:16;;;;;;;2.50;0.70;;;6.30;73.80;;;;;;5092205;28;20024;-74
2021/04/02 07:06:43;;;;;;;4.85;0.90;;;6.40;73.00;;;;;;5092018;28;20105;-76
2021/04/02 07:09:09;;;;;;;2.60;0.75;;;6.50;73.00;;;;;;5092146;28;20028;-76
2021/04/02 07:11:37;;;;;;;2.85;0.80;;;6.60;72.60;;;;;;5091537;28;20020;-83
2021/04/02 07:14:07;;;;;;;1.75;0.60;;;6.70;72.00;;;;;;5092146;28;20028;-84
2021/04/02 07:16:34;;;;;;;2.73;0.70;;;6.80;72.40;;;;;;5091896;28;20063;-84
2021/04/02 07:19:01;;;;;;;4.72;0.98;;;6.90;71.50;;;;;;5091581;28;20028;-84
2021/04/02 07:21:33;;;;;;;3.10;0.65;;;6.90;70.80;;;;;;5091982;28;20099;-83
2021/04/02 07:24:01;;;;;;;2.75;1.00;;;6.90;70.90;;;;;;5091928;28;20016;-85
2021/04/02 07:26:27;;;;;;;0.85;0.57;;;6.90;71.30;;;;;;5091999;28;20028;-82
2021/04/02 07:28:54;;;;;;;5.00;0.80;;;6.90;70.90;;;;;;5073283;28;20422;-83
2021/04/02 07:31:21;;;;;;;0.93;0.80;;;6.90;70.90;;;;;;5091849;28;20028;-84
2021/04/02 07:33:48;;;;;;;3.05;0.60;;;6.80;71.10;;;;;;5091749;28;20032;-85
2021/04/02 07:36:17;;;;;;;2.28;0.75;;;6.70;71.10;;;;;;5079207;28;20073;-83
2021/04/02 07:38:49;;;;;;;2.80;1.00;;;6.70;71.60;;;;;;5091570;28;20066;-85
2021/04/02 07:41:17;;;;;;;2.50;0.60;;;6.60;71.90;;;;;;5091915;28;20028;-85
2021/04/02 07:43:55;;;;;;;5.00;0.93;;;6.70;72.50;;;;;;5088195;28;20089;-76
2021/04/02 07:46:24;;;;;;;5.13;1.08;;;7.20;89.00;;;;;;5091478;28;20496;-81
2021/04/02 07:49:11;;;;;;;3.30;1.50;;;7.70;73.20;;;;;;5082545;28;20092;-82
2021/04/02 07:51:54;;;;;;;4.70;1.00;;;7.60;70.60;;;;;;5091578;28;20028;-81
2021/04/02 07:54:22;;;;;;;3.55;0.93;;;7.40;70.60;;;;;;5091157;28;20016;-83
2021/04/02 07:56:54;;;;;;;5.18;1.23;;;7.30;72.30;;;;;;5091520;28;20020;-81
2021/04/02 07:59:19;;;;;;;1.45;0.65;;;7.30;72.00;;;;;;5094361;28;20035;-77
2021/04/02 08:02:03;;;;;;;3.67;0.95;;;7.30;71.30;;;;;;5095195;28;20020;-78
2021/04/02 08:04:59;;;;;;;0.93;0.50;;;7.30;74.90;;;;;;5095228;28;20063;-83
2021/04/02 08:07:40;;;;;;;1.67;0.60;;;7.50;72.20;;;;;;5093737;28;20032;-83
2021/04/02 08:10:14;;;;;;;4.55;0.93;;;7.40;72.10;;;;;;5095532;28;20032;-83
2021/04/02 08:12:41;;;;;;;2.67;0.68;;;7.20;72.10;;;;;;5095171;28;20384;-82
2021/04/02 08:15:11;;;;;;;1.20;0.60;;;7.10;72.50;;;;;;5095288;28;20418;-83
2021/04/02 08:17:37;;;;;;;;;;;6.90;72.40;;;;;;5095561;28;20043;-82
2021/04/02 08:20:13;;;;;;;3.03;0.80;;;6.90;72.40;;;;;;5095061;28;20395;-83
2021/04/02 08:22:39;;;;;;;3.20;0.65;;;6.80;72.90;;;;;;5082765;28;20027;-83
2021/04/02 08:25:08;;;;;;;2.78;0.77;;;6.80;73.40;;;;;;5080751;28;20087;-84
2021/04/02 08:27:34;;;;;;;3.47;0.65;;;6.80;73.50;;;;;;5092508;28;20535;-82
2021/04/02 08:30:04;;;;;;;4.85;0.70;;;6.90;73.60;;;;;;5095127;28;20069;-83
2021/04/02 08:32:34;;;;;;;4.25;0.60;;;6.80;72.80;;;;;;5095227;28;20348;-83
2021/04/02 08:35:00;;;;;;;;;;;6.80;72.70;;;;;;5094892;28;20024;-82
2021/04/02 08:37:28;;;;;;;4.28;1.15;;;6.70;72.70;;;;;;5094463;28;19904;-83
2021/04/02 08:39:55;;;;;;;1.48;0.60;;;7.70;80.60;;;;;;5094508;28;20028;-82
2021/04/02 08:42:21;;;;;;;2.15;0.65;;;7.70;72.80;;;;;;5094618;28;20081;-79
2021/04/02 08:44:48;;;;;;;3.60;0.55;;;7.50;71.40;;;;;;5094830;28;20035;-80
2021/04/02 08:47:17;;;;;;;5.32;0.80;;;7.40;71.90;;;;;;5094598;28;20035;-79
2021/04/02 08:49:51;;;;;;;2.67;1.00;;;7.40;72.60;;;;;;5094514;28;20097;-78
2021/04/02 08:52:20;;;;;;;3.60;0.82;;;7.30;72.60;;;;;;5094592;28;20020;-79
2021/04/02 08:54:46;;;;;;;3.78;0.68;;;7.30;72.70;;;;;;5094517;28;20111;-79
2021/04/02 08:57:14;;;;;;;1.50;0.68;;;7.30;72.60;;;;;;5094678;28;20028;-80
2021/04/02 08:59:45;;;;;;;2.05;0.80;;;7.40;72.90;;;;;;5094222;28;20046;-79
2021/04/02 09:02:13;;;;;;;2.45;0.90;;;7.40;72.50;;;;;;5094309;28;20380;-79
2021/04/02 09:04:39;;;;;;;1.90;0.60;;;7.40;72.60;;;;;;5094683;28;20479;-79
2021/04/02 09:07:05;;;;;;;1.95;0.60;;;7.40;72.80;;;;;;5094189;28;20541;-74
2021/04/02 09:09:31;;;;;;;5.53;0.70;;;7.30;72.30;;;;;;5093818;28;20476;-77
2021/04/02 09:12:08;;;;;;;3.00;0.70;;;7.30;73.00;;;;;;5094095;28;20040;-73
2021/04/02 09:14:34;;;;;;;4.40;0.70;;;7.20;74.50;;;;;;5085395;28;20395;-74
2021/04/02 09:16:59;;;;;;;3.70;0.70;;;7.10;75.10;;;;;;5093940;28;20024;-78
2021/04/02 09:19:27;;;;;;;6.35;0.90;;;7.00;77.10;;;;;;5094023;28;20028;-78
2021/04/02 09:21:54;;;;;;;10.40;0.93;;;7.20;79.10;;;;;;5094191;28;20361;-69
2021/04/02 09:24:22;;;;;;;4.20;0.95;;;7.20;77.50;;;;;;5094168;28;20034;-70
2021/04/02 09:26:48;;;;;;;2.15;0.73;;;7.30;78.60;;;;;;5093999;28;20031;-69
2021/04/02 09:29:16;;;;;;;1.33;0.50;;;7.70;81.10;;;;;;5093890;28;20063;-70
2021/04/02 09:31:43;;;;;;;0.65;0.40;;;7.40;77.10;;;;;;5093900;28;20662;-70
2021/04/02 09:34:12;;;;;;;1.67;0.40;;;7.20;77.10;;;;;;5093968;28;20468;-69
2021/04/02 09:36:40;;;;;;;0.80;0.50;;;7.00;77.80;;;;;;5093597;28;20016;-70
2021/04/02 09:39:13;;;;;;;1.10;0.50;;;6.90;79.60;;;;;;5093377;28;20111;-71
2021/04/02 09:41:48;;;;;;;0.47;0.40;;;6.80;79.60;;;;;;5086060;28;20431;-69
2021/04/02 09:44:17;;;;;;;6.25;0.65;;;6.80;80.60;;;;;;5095073;28;20754;-70
2021/04/02 09:46:45;;;;;;;3.50;0.50;;;6.70;79.80;;;;;;5089508;28;20032;-70
2021/04/02 09:49:22;;;;;;;1.90;0.57;;;6.80;82.40;;;;;;5090419;28;20075;-70
2021/04/02 09:51:50;;;;;;;1.38;0.60;;;6.90;80.50;;;;;;5092539;28;20024;-70
2021/04/02 09:54:18;;;;;;;2.15;0.40;;;6.90;80.10;;;;;;5093249;28;20103;-71
2021/04/02 09:56:45;;;;;;;3.70;0.57;;;7.00;81.10;;;;;;5089624;28;20059;-74
2021/04/02 09:59:11;;;;;;;1.73;0.60;;;7.00;79.80;;;;;;5106466;28;20479;-74
2021/04/02 10:01:39;;;;;;;4.95;0.60;;;7.00;78.80;;;;;;5089333;28;20024;-72
2021/04/02 10:04:06;;;;;;;0.55;0.40;;;6.90;78.80;;;;;;5087523;28;20028;-71
2021/04/02 10:06:32;;;;;;;4.10;0.75;;;6.90;79.10;;;;;;5088159;28;20571;-72
2021/04/02 10:08:58;;;;;;;3.17;0.60;;;6.90;78.60;;;;;;5092866;28;20031;-70
2021/04/02 10:11:25;;;;;;;2.10;0.70;;;6.90;77.90;;;;;;5093267;28;20020;-71
2021/04/02 10:13:52;;;;;;;3.15;0.70;;;6.90;78.00;;;;;;5089734;28;20040;-72
2021/04/02 10:16:19;;;;;;;2.75;0.60;;;7.00;78.50;;;;;;5086911;28;20035;-71
2021/04/02 10:18:49;;;;;;;4.47;0.70;;;7.20;78.40;;;;;;5090304;28;20039;-72
2021/04/02 10:21:19;;;;;;;0.80;0.50;;;7.20;76.00;;;;;;5092270;28;20020;-71
2021/04/02 10:23:45;;;;;;;0.88;0.50;;;7.20;73.70;;;;;;5091701;28;20042;-75
2021/04/02 10:26:11;;;;;;;1.77;0.77;;;7.30;74.20;;;;;;5081518;28;20055;-77
2021/04/02 10:28:38;;;;;;;2.17;0.57;;;7.20;73.70;;;;;;5092971;28;20077;-80
2021/04/02 10:31:04;;;;;;;1.88;0.55;;;7.30;74.70;;;;;;5092503;28;20047;-80
2021/04/02 10:33:30;;;;;;;1.05;0.60;;;7.40;74.70;;;;;;5092859;28;20470;-79
2021/04/02 10:35:56;;;;;;;4.78;0.85;;;7.40;72.50;;;;;;5092910;28;20020;-75
2021/04/02 10:38:22;;;;;;;0.93;0.50;;;7.30;72.30;;;;;;5092592;28;20077;-76
2021/04/02 10:40:48;;;;;;;2.42;0.77;;;7.40;73.70;;;;;;5092316;28;20048;-76
2021/04/02 10:43:14;;;;;;;2.22;0.60;;;7.40;72.20;;;;;;5092229;28;20024;-77
2021/04/02 10:45:40;;;;;;;1.70;0.70;;;7.50;72.70;;;;;;5088804;28;20032;-76
2021/04/02 10:48:07;;;;;;;2.67;0.68;;;7.50;72.40;;;;;;5092177;28;20127;-76
2021/04/02 10:50:33;;;;;;;4.22;0.82;;;7.50;72.80;;;;;;5092390;28;20020;-76
2021/04/02 10:52:59;;;;;;;5.35;0.80;;;7.50;71.50;;;;;;5092028;28;20032;-76
2021/04/02 10:55:25;;;;;;;2.88;0.73;;;7.50;70.60;;;;;;5087565;28;20048;-76
2021/04/02 10:57:51;;;;;;;3.65;0.90;;;7.60;71.00;;;;;;5092194;28;20483;-76
2021/04/02 11:00:19;;;;;;;3.47;0.80;;;7.60;70.80;;;;;;5092116;28;20024;-81
2021/04/02 11:02:45;;;;;;;5.13;0.68;;;7.70;71.00;;;;;;5091888;28;20028;-80
2021/04/02 11:05:11;;;;;;;2.72;0.50;;;7.70;70.20;;;;;;5085244;28;20099;-79
2021/04/02 11:07:38;;;;;;;4.05;0.70;;;7.70;70.20;;;;;;5091948;28;20117;-79
2021/04/02 11:10:05;;;;;;;6.88;0.85;;;7.70;70.10;;;;;;5092001;28;20020;-77
2021/04/02 11:12:31;;;;;;;4.05;1.00;;;7.70;70.00;;;;;;5091970;28;20055;-79
2021/04/02 11:14:58;;;;;;;1.33;0.80;;;7.70;69.90;;;;;;5091636;28;20449;-80
2021/04/02 11:17:25;;;;;;;2.00;0.65;;;7.70;69.70;;;;;;5092040;28;20031;-80
2021/04/02 11:19:53;;;;;;;5.43;0.70;;;7.70;68.70;;;;;;5091762;28;20032;-79
2021/04/02 11:22:19;;;;;;;2.88;0.80;;;7.70;69.10;;;;;;5091715;28;20050;-73
2021/04/02 11:24:45;;;;;;;3.97;1.00;;;7.80;69.00;;;;;;5092036;28;20436;-76
2021/04/02 11:27:10;;;;;;;2.70;0.68;;;7.90;70.00;;;;;;5091164;28;20063;-79
2021/04/02 11:29:37;;;;;;;2.85;0.57;;;7.90;70.20;;;;;;5091972;28;20032;-80
2021/04/02 11:32:05;;;;;;;2.88;0.90;;;8.60;80.50;;;;;;5091228;28;20024;-78
2021/04/02 11:34:31;;;;;;;5.00;1.00;;;8.70;70.50;;;;;;5091498;28;20414;-76
2021/04/02 11:36:58;;;;;;;2.67;0.70;;;8.50;69.70;;;;;;5091301;28;20027;-76
2021/04/02 11:39:25;;;;;;;2.10;0.80;;;8.30;69.80;;;;;;5091304;28;20036;-76
2021/04/02 11:41:51;;;;;;;2.53;0.65;;;8.20;69.70;;;;;;5081358;28;20033;-76
2021/04/02 11:44:17;;;;;;;3.90;0.85;;;8.20;70.20;;;;;;5088946;28;20582;-75
2021/04/02 11:46:42;;;;;;;5.15;1.10;;;8.20;69.90;;;;;;5081527;28;20032;-75
2021/04/02 11:49:08;;;;;;;2.97;0.88;;;8.10;69.60;;;;;;5091353;28;20067;-75
2021/04/02 11:51:35;;;;;;;3.95;0.70;;;8.20;70.00;;;;;;5091415;28;20056;-75
2021/04/02 11:54:00;;;;;;;3.45;0.60;;;8.20;70.10;;;;;;5091459;28;20032;-75
2021/04/02 11:56:26;;;;;;;2.35;0.90;;;8.10;69.90;;;;;;5090945;28;20024;-74
2021/04/02 11:58:52;;;;;;;3.95;1.20;;;8.10;70.90;;;;;;5090491;28;20032;-73
2021/04/02 12:01:18;;;;;;;2.58;0.68;;;8.20;72.90;;;;;;5091399;28;20463;-78
2021/04/02 12:03:44;;;;;;;2.25;0.77;;;9.70;79.10;;;;;;5090489;28;20043;-77
2021/04/02 12:06:10;;;;;;;3.70;0.82;;;9.50;66.80;;;;;;5090494;28;20356;-74
2021/04/02 12:08:35;;;;;;;3.53;1.48;;;9.00;66.30;;;;;;5085885;28;20158;-73
2021/04/02 12:11:02;;;;;;;5.13;1.48;;;8.70;67.10;;;;;;5090411;28;20103;-73
2021/04/02 12:13:28;;;;;;;3.45;0.70;;;8.40;66.50;;;;;;5089223;28;20040;-72
2021/04/02 12:15:54;;;;;;;3.45;0.98;;;8.30;66.70;;;;;;5090854;28;20016;-73
2021/04/02 12:18:20;;;;;;;2.65;0.88;;;8.10;65.40;;;;;;5091068;28;20553;-73
2021/04/02 12:20:46;;;;;;;2.17;0.60;;;8.00;65.70;;;;;;5090974;28;20073;-72
2021/04/02 12:23:12;;;;;;;2.38;0.63;;;8.00;66.30;;;;;;5083566;28;20024;-73
2021/04/02 12:25:38;;;;;;;4.13;0.90;;;8.00;66.40;;;;;;5090907;28;20086;-75
2021/04/02 12:28:03;;;;;;;5.57;0.85;;;8.10;66.10;;;;;;5090473;28;20445;-74
2021/04/02 12:30:29;;;;;;;1.90;0.68;;;8.10;65.80;;;;;;5087973;28;20020;-76
2021/04/02 12:32:55;;;;;;;2.17;0.82;;;8.10;65.10;;;;;;5090372;28;20066;-74
2021/04/02 12:35:21;;;;;;;2.63;1.13;;;8.10;64.30;;;;;;5089848;28;20028;-74
2021/04/02 12:37:46;;;;;;;2.15;0.57;;;8.20;63.60;;;;;;5085994;28;20127;-77
2021/04/02 12:40:18;;;;;;;3.40;1.00;;;8.10;62.70;;;;;;5088236;28;20564;-77
2021/04/02 12:42:44;;;;;;;2.50;0.80;;;8.00;62.30;;;;;;5089490;28;20020;-77
2021/04/02 12:45:12;;;;;;;2.35;0.57;;;7.90;61.30;;;;;;5092544;28;20028;-75
2021/04/02 12:47:39;;;;;;;1.42;0.60;;;7.90;62.00;;;;;;5094081;28;20617;-74
2021/04/02 12:50:14;;;;;;;6.55;0.80;;;8.00;62.10;;;;;;5091559;28;20020;-76
2021/04/02 12:52:40;;;;;;;1.90;0.70;;;8.00;61.60;;;;;;5093730;28;20082;-75
2021/04/02 12:55:12;;;;;;;2.40;1.13;;;8.00;61.80;;;;;;5094310;28;20510;-75
2021/04/02 12:57:38;;;;;;;1.15;0.60;;;8.00;61.50;;;;;;5094355;28;20468;-75
2021/04/02 13:00:07;;;;;;;1.27;0.63;;;8.00;61.90;;;;;;5094090;28;20024;-75
2021/04/02 13:02:32;;;;;;;4.18;0.70;;;7.90;60.70;;;;;;5094211;28;20032;-77
2021/04/02 13:04:58;;;;;;;1.98;0.60;;;8.00;60.50;;;;;;5094450;28;20027;-81
2021/04/02 13:07:24;;;;;;;4.40;0.70;;;7.90;60.00;;;;;;5094538;28;20028;-78
2021/04/02 13:09:50;;;;;;;3.35;0.63;;;7.90;61.00;;;;;;5094075;28;20016;-73
2021/04/02 13:12:15;;;;;;;2.60;0.50;;;8.00;59.90;;;;;;5093878;28;20052;-73
2021/04/02 13:14:41;;;;;;;3.85;0.88;;;8.00;60.00;;;;;;5090892;28;20024;-73
2021/04/02 13:17:07;;;;;;;2.42;0.70;;;8.00;59.80;;;;;;5093697;28;20028;-74
2021/04/02 13:19:34;;;;;;;3.35;0.65;;;8.00;60.00;;;;;;5092976;28;20047;-70
2021/04/02 13:22:00;;;;;;;1.48;0.68;;;7.90;59.20;;;;;;5093960;28;20411;-71
2021/04/02 13:24:26;;;;;;;2.10;0.90;;;8.00;59.80;;;;;;5093912;28;20487;-70
2021/04/02 13:26:52;;;;;;;1.27;0.68;;;8.00;59.40;;;;;;5093633;28;20027;-70
2021/04/02 13:29:18;;;;;;;2.92;0.80;;;8.10;59.30;;;;;;5093242;28;20012;-71
2021/04/02 13:31:44;;;;;;;3.05;0.90;;;8.10;58.80;;;;;;5085056;28;20036;-70
2021/04/02 13:34:09;;;;;;;3.22;0.68;;;8.00;57.90;;;;;;5092039;28;20020;-69
2021/04/02 13:36:35;;;;;;;2.20;0.55;;;8.00;58.70;;;;;;5094001;28;20115;-70
2021/04/02 13:39:01;;;;;;;1.05;0.43;;;8.00;59.30;;;;;;5093414;28;20082;-71
2021/04/02 13:41:27;;;;;;;5.22;0.88;;;7.90;59.80;;;;;;5089388;28;20032;-70
2021/04/02 13:43:52;;;;;;;1.35;0.60;;;7.90;60.40;;;;;;5093814;28;20035;-70
2021/04/02 13:46:18;;;;;;;2.78;1.00;;;8.00;60.60;;;;;;5093618;28;20020;-71
2021/04/02 13:48:44;;;;;;;7.93;0.88;;;8.00;60.60;;;;;;5092706;28;20502;-72
2021/04/02 13:51:10;;;;;;;1.65;0.60;;;8.00;61.00;;;;;;5094851;28;20028;-71
2021/04/02 13:53:35;;;;;;;2.28;0.70;;;8.00;60.60;;;;;;5093947;28;20048;-72
2021/04/02 13:56:01;;;;;;;2.10;0.63;;;8.00;60.20;;;;;;5088671;28;20012;-72
2021/04/02 13:58:27;;;;;;;4.32;0.80;;;8.10;60.00;;;;;;5092780;28;20028;-71
2021/04/02 14:00:53;;;;;;;2.55;0.70;;;8.10;59.30;;;;;;5093046;28;20024;-72
2021/04/02 14:03:18;;;;;;;0.90;0.40;;;8.10;58.60;;;;;;5092670;28;20383;-71
2021/04/02 14:05:44;;;;;;;3.47;0.77;;;8.10;58.20;;;;;;5090241;28;20391;-71
2021/04/02 14:08:10;;;;;;;2.15;0.80;;;8.00;58.40;;;;;;5089638;28;20016;-71
2021/04/02 14:10:37;;;;;;;2.15;1.08;;;8.00;58.40;;;;;;5092541;28;20069;-70
2021/04/02 14:13:04;;;;;;;1.80;0.80;;;8.00;57.80;;;;;;5092392;28;20064;-72
2021/04/02 14:15:31;;;;;;;1.05;0.57;;;8.10;58.20;;;;;;5092241;28;20031;-72
2021/04/02 14:17:57;;;;;;;1.48;0.40;;;8.10;57.50;;;;;;5088671;28;20021;-72
2021/04/02 14:20:26;;;;;;;3.25;0.63;;;8.10;57.40;;;;;;5091775;28;20077;-72
2021/04/02 14:22:52;;;;;;;1.45;0.63;;;8.10;56.90;;;;;;5087524;28;20034;-71
2021/04/02 14:25:20;;;;;;;2.70;1.33;;;8.20;57.50;;;;;;5086686;28;20046;-73
2021/04/02 14:27:46;;;;;;;6.07;2.17;;;8.20;57.60;;;;;;5086827;28;20082;-73
2021/04/02 14:30:20;;;;;;;2.85;1.23;;;8.20;57.50;;;;;;5101582;28;20025;-72
2021/04/02 14:32:48;;;;;;;5.03;1.55;;;8.20;56.40;;;;;;5086501;28;20048;-72
2021/04/02 14:35:16;;;;;;;1.48;0.80;;;8.10;56.20;;;;;;5083997;28;20126;-72
2021/04/02 14:37:42;;;;;;;0.85;0.68;;;8.10;56.00;;;;;;5091718;28;20111;-72
2021/04/02 14:40:11;;;;;;;0.60;0.30;;;8.10;56.40;;;;;;5091851;28;20387;-72
2021/04/02 14:42:38;;;;;;;1.67;0.90;;;8.00;56.30;;;;;;5089246;28;20123;-72
2021/04/02 14:45:08;;;;;;;1.75;0.68;;;8.00;56.30;;;;;;5091982;28;20030;-72
2021/04/02 14:47:34;;;;;;;;;;;8.00;56.40;;;;;;5090243;28;20028;-72
2021/04/02 14:50:00;;;;;;;0.93;0.50;;;8.00;56.00;;;;;;5091975;28;20249;-73
2021/04/02 14:52:26;;;;;;;2.40;0.60;;;7.90;56.30;;;;;;5091455;28;20050;-71
2021/04/02 14:54:52;;;;;;;2.00;0.60;;;7.90;57.20;;;;;;5092278;28;20032;-71
2021/04/02 14:57:18;;;;;;;0.57;0.47;;;7.90;57.80;;;;;;5092133;28;20031;-71
2021/04/02 14:59:44;;;;;;;3.25;0.40;;;7.90;57.10;;;;;;5092086;28;20032;-71
2021/04/02 15:02:09;;;;;;;1.10;0.40;;;7.80;57.00;;;;;;5088221;28;20028;-72
2021/04/02 15:04:36;;;;;;;2.38;0.40;;;7.80;57.40;;;;;;5092319;28;20031;-71
2021/04/02 15:07:04;;;;;;;1.63;0.63;;;7.90;57.60;;;;;;5091382;28;20028;-71
2021/04/02 15:09:30;;;;;;;1.25;0.40;;;7.90;57.20;;;;;;5091947;28;20107;-72
2021/04/02 15:11:56;;;;;;;0.73;0.70;;;7.90;57.70;;;;;;5091517;28;20032;-71
2021/04/02 15:14:22;;;;;;;1.83;0.40;;;7.90;56.90;;;;;;5091369;28;20391;-71
2021/04/02 15:16:48;;;;;;;1.17;0.30;;;7.80;57.30;;;;;;5086394;28;20436;-71
2021/04/02 15:19:13;;;;;;;1.00;0.45;;;7.80;57.30;;;;;;5086784;28;20115;-71
2021/04/02 15:21:39;;;;;;;3.95;0.40;;;7.80;57.60;;;;;;5091269;28;20022;-71
2021/04/02 15:24:05;;;;;;;0.73;0.30;;;7.80;57.30;;;;;;5090861;28;20111;-71
2021/04/02 15:26:31;;;;;;;0.77;0.40;;;7.80;56.80;;;;;;5091133;28;20024;-72
2021/04/02 15:28:57;;;;;;;4.95;0.45;;;7.80;57.30;;;;;;5090814;28;20073;-71
2021/04/02 15:31:22;;;;;;;0.40;0.40;;;7.70;57.20;;;;;;5091007;28;20016;-72
2021/04/02 15:33:48;;;;;;;2.85;0.40;;;7.70;57.80;;;;;;5091176;28;20028;-71
2021/04/02 15:36:14;;;;;;;0.45;0.40;;;7.70;57.40;;;;;;5090780;28;20036;-70
2021/04/02 15:38:40;;;;;;;1.75;0.32;;;7.70;57.30;;;;;;5091525;28;20043;-70
2021/04/02 15:41:05;;;;;;;2.55;0.50;;;7.60;57.10;;;;;;5091216;28;20472;-81
2021/04/02 15:43:31;;;;;;;2.45;0.50;;;7.60;57.70;;;;;;5091865;28;20020;-77
2021/04/02 15:45:57;;;;;;;0.35;0.30;;;8.20;62.20;;;;;;5091856;28;20031;-77
2021/04/02 15:48:23;;;;;;;0.68;0.40;;;8.10;56.90;;;;;;5091203;28;20028;-77
2021/04/02 15:50:49;;;;;;;1.23;0.50;;;7.90;56.40;;;;;;5091706;28;20028;-76
2021/04/02 15:53:15;;;;;;;1.85;0.40;;;7.90;57.10;;;;;;5091358;28;20020;-77
2021/04/02 15:55:41;;;;;;;0.73;0.45;;;7.80;56.50;;;;;;5091530;28;20028;-77
2021/04/02 15:58:07;;;;;;;0.85;0.50;;;7.70;56.00;;;;;;5091251;28;20114;-76
2021/04/02 16:00:33;;;;;;;2.45;0.80;;;7.60;56.20;;;;;;5091418;28;20032;-77
2021/04/02 16:03:02;;;;;;;1.40;0.50;;;7.60;56.80;;;;;;5091360;28;20610;-76
2021/04/02 16:05:29;;;;;;;0.40;0.40;;;7.60;56.70;;;;;;5091379;28;20043;-76
2021/04/02 16:07:55;;;;;;;0.30;0.30;;;7.60;56.40;;;;;;5091686;28;20034;-77
2021/04/02 16:10:27;;;;;;;0.93;0.63;;;7.60;56.50;;;;;;5091469;28;20036;-72
2021/04/02 16:12:55;;;;;;;1.35;0.65;;;8.60;78.40;;;;;;5091272;28;20091;-77
2021/04/02 16:15:23;;;;;;;2.80;0.75;;;9.20;58.80;;;;;;5086879;28;20027;-79
2021/04/02 16:17:49;;;;;;;2.63;0.70;;;8.80;55.20;;;;;;5091384;28;20032;-79
2021/04/02 16:20:15;;;;;;;1.95;0.50;;;8.40;54.80;;;;;;5093736;28;20056;-78
2021/04/02 16:22:41;;;;;;;1.20;0.65;;;8.10;54.70;;;;;;5095217;28;20067;-78
2021/04/02 16:25:08;;;;;;;0.85;0.40;;;7.90;54.40;;;;;;5094939;28;20024;-74
2021/04/02 16:27:34;;;;;;;1.40;0.70;;;7.90;54.70;;;;;;5094431;28;20442;-73
2021/04/02 16:30:00;;;;;;;5.10;0.68;;;7.80;55.00;;;;;;5095066;28;20020;-73
2021/04/02 16:32:28;;;;;;;0.98;0.50;;;7.80;55.20;;;;;;5094589;28;20365;-73
2021/04/02 16:34:55;;;;;;;1.20;0.43;;;7.70;55.30;;;;;;5090604;28;20035;-73
2021/04/02 16:37:21;;;;;;;3.72;0.63;;;7.70;55.40;;;;;;5091709;28;20106;-72
2021/04/02 16:39:47;;;;;;;3.35;0.88;;;7.70;55.40;;;;;;5094919;28;20040;-73
2021/04/02 16:42:13;;;;;;;1.55;0.68;;;7.70;55.50;;;;;;5110081;28;20388;-73
2021/04/02 16:44:39;;;;;;;2.25;0.80;;;7.60;55.50;;;;;;5094655;28;20023;-68
2021/04/02 16:47:05;;;;;;;0.60;0.50;;;7.50;55.60;;;;;;5095050;28;20024;-71
2021/04/02 16:49:30;;;;;;;0.50;0.50;;;7.50;55.80;;;;;;5094693;28;20024;-71
2021/04/02 16:51:56;;;;;;;0.63;0.43;;;7.40;55.30;;;;;;5095137;28;20024;-72
2021/04/02 16:54:22;;;;;;;1.05;0.50;;;7.30;55.00;;;;;;5094751;28;20058;-73
2021/04/02 16:56:48;;;;;;;2.75;0.55;;;7.30;55.30;;;;;;5094828;28;20024;-73
2021/04/02 16:59:13;;;;;;;3.22;0.65;;;7.30;55.60;;;;;;5094614;28;20036;-73
2021/04/02 17:01:39;;;;;;;3.53;0.50;;;7.30;55.70;;;;;;5094324;28;20024;-69
2021/04/02 17:04:05;;;;;;;1.00;0.70;;;7.20;55.50;;;;;;5094685;28;20016;-69
2021/04/02 17:06:31;;;;;;;1.40;0.70;;;7.10;55.60;;;;;;5079944;28;20024;-69
2021/04/02 17:08:56;;;;;;;2.13;0.70;;;7.00;56.30;;;;;;5087625;28;20486;-70
2021/04/02 17:11:23;;;;;;;3.00;0.82;;;7.00;56.10;;;;;;5087339;28;20526;-70